sensor_id;sensor_type;location;lat;lon;timestamp;pressure;altitude;pressure_sealevel;temperature;humidity
18850;BME280;4989;48.772;9.154;2023-09-30T00:01:12;98842.06;;;18.73;89.89
18850;BME280;4989;48.772;9.154;2023-09-30T00:06:35;98838.72;;;18.96;88.94
18850;BME280;4989;48.772;9.154;2023-09-30T00:11:56;98830.63;;;19.39;84.88
18850;BME280;4989;48.772;9.154;2023-09-30T00:17:17;98812.84;;;18.94;89.90
18850;BME280;4989;48.772;9.154;2023-09-30T00:22:38;98817.16;;;19.22;92.93
18850;BME280;4989;48.772;9.154;2023-09-30T00:27:59;98814.06;;;20.18;86.20
18850;BME280;4989;48.772;9.154;2023-09-30T00:33:19;98822.88;;;20.98;82.08
18850;BME280;4989;48.772;9.154;2023-09-30T00:38:41;98846.03;;;21.24;78.50
18850;BME280;4989;48.772;9.154;2023-09-30T00:44:03;98837.31;;;21.41;76.49
18850;BME280;4989;48.772;9.154;2023-09-30T00:49:25;98834.88;;;21.58;76.53
18850;BME280;4989;48.772;9.154;2023-09-30T00:54:48;98840.31;;;21.67;76.37
18850;BME280;4989;48.772;9.154;2023-09-30T01:00:11;98833.16;;;21.75;75.20
18850;BME280;4989;48.772;9.154;2023-09-30T01:05:33;98834.88;;;21.87;74.48
18850;BME280;4989;48.772;9.154;2023-09-30T01:10:55;98842.31;;;21.81;74.80
18850;BME280;4989;48.772;9.154;2023-09-30T01:16:17;98842.69;;;21.89;75.01
18850;BME280;4989;48.772;9.154;2023-09-30T01:21:38;98844.06;;;21.79;74.42
18850;BME280;4989;48.772;9.154;2023-09-30T01:26:58;98836.38;;;21.59;74.70
18850;BME280;4989;48.772;9.154;2023-09-30T01:32:19;98846.19;;;20.06;80.96
18850;BME280;4989;48.772;9.154;2023-09-30T01:37:41;98849.13;;;19.02;90.62
18850;BME280;4989;48.772;9.154;2023-09-30T01:43:03;98838.03;;;20.45;85.47
18850;BME280;4989;48.772;9.154;2023-09-30T01:48:24;98842.13;;;20.26;83.33
18850;BME280;4989;48.772;9.154;2023-09-30T01:53:45;98849.59;;;19.83;87.17
18850;BME280;4989;48.772;9.154;2023-09-30T01:59:06;98818.06;;;20.50;85.17
18850;BME280;4989;48.772;9.154;2023-09-30T02:04:27;98827.66;;;20.97;82.38
18850;BME280;4989;48.772;9.154;2023-09-30T02:09:48;98829.06;;;19.84;86.33
18850;BME280;4989;48.772;9.154;2023-09-30T02:15:10;98828.22;;;20.44;85.48
18850;BME280;4989;48.772;9.154;2023-09-30T02:20:32;98852.22;;;20.95;82.06
18850;BME280;4989;48.772;9.154;2023-09-30T02:25:52;98846.31;;;21.02;78.66
18850;BME280;4989;48.772;9.154;2023-09-30T02:31:15;98855.53;;;20.42;81.54
18850;BME280;4989;48.772;9.154;2023-09-30T02:36:38;98856.53;;;20.21;83.05
18850;BME280;4989;48.772;9.154;2023-09-30T02:42:00;98861.34;;;20.53;84.83
18850;BME280;4989;48.772;9.154;2023-09-30T02:47:21;98852.91;;;20.81;82.54
18850;BME280;4989;48.772;9.154;2023-09-30T02:52:42;98866.09;;;20.86;77.57
18850;BME280;4989;48.772;9.154;2023-09-30T02:58:03;98854.59;;;20.03;81.81
18850;BME280;4989;48.772;9.154;2023-09-30T03:03:24;98872.31;;;19.68;83.61
18850;BME280;4989;48.772;9.154;2023-09-30T03:08:46;98878.66;;;18.92;90.03
18850;BME280;4989;48.772;9.154;2023-09-30T03:14:10;98891.78;;;18.79;91.04
18850;BME280;4989;48.772;9.154;2023-09-30T03:19:32;98901.41;;;19.70;86.88
18850;BME280;4989;48.772;9.154;2023-09-30T03:24:55;98886.88;;;18.73;98.50
18850;BME280;4989;48.772;9.154;2023-09-30T03:30:18;98892.78;;;20.04;88.54
18850;BME280;4989;48.772;9.154;2023-09-30T03:35:41;98895.78;;;20.34;82.99
18850;BME280;4989;48.772;9.154;2023-09-30T03:41:02;98885.84;;;20.70;81.83
18850;BME280;4989;48.772;9.154;2023-09-30T03:46:23;98875.00;;;19.96;80.41
18850;BME280;4989;48.772;9.154;2023-09-30T03:51:44;98864.59;;;19.63;84.50
18850;BME280;4989;48.772;9.154;2023-09-30T03:57:05;98858.50;;;19.78;82.33
18850;BME280;4989;48.772;9.154;2023-09-30T04:02:26;98864.47;;;20.37;83.67
18850;BME280;4989;48.772;9.154;2023-09-30T04:07:47;98861.09;;;20.99;80.81
18850;BME280;4989;48.772;9.154;2023-09-30T04:13:08;98873.97;;;21.02;79.72
18850;BME280;4989;48.772;9.154;2023-09-30T04:18:29;98874.84;;;21.09;78.50
18850;BME280;4989;48.772;9.154;2023-09-30T04:23:51;98872.22;;;21.38;77.39
18850;BME280;4989;48.772;9.154;2023-09-30T04:29:12;98860.56;;;21.34;77.16
18850;BME280;4989;48.772;9.154;2023-09-30T04:34:35;98870.38;;;21.35;77.00
18850;BME280;4989;48.772;9.154;2023-09-30T04:39:55;98877.97;;;21.25;77.27
18850;BME280;4989;48.772;9.154;2023-09-30T04:45:17;98895.63;;;21.28;77.15
18850;BME280;4989;48.772;9.154;2023-09-30T04:50:41;98898.78;;;21.12;74.99
18850;BME280;4989;48.772;9.154;2023-09-30T04:56:03;98903.56;;;19.84;80.77
18850;BME280;4989;48.772;9.154;2023-09-30T05:01:24;98907.59;;;20.77;80.94
18850;BME280;4989;48.772;9.154;2023-09-30T05:06:45;98919.16;;;20.99;79.44
18850;BME280;4989;48.772;9.154;2023-09-30T05:12:06;98917.63;;;20.98;76.67
18850;BME280;4989;48.772;9.154;2023-09-30T05:17:28;98919.91;;;20.76;78.27
18850;BME280;4989;48.772;9.154;2023-09-30T05:22:50;98926.31;;;20.82;78.16
18850;BME280;4989;48.772;9.154;2023-09-30T05:28:11;98924.31;;;20.40;78.35
18850;BME280;4989;48.772;9.154;2023-09-30T05:33:32;98911.22;;;19.80;80.56
18850;BME280;4989;48.772;9.154;2023-09-30T05:38:54;98903.72;;;18.75;87.87
18850;BME280;4989;48.772;9.154;2023-09-30T05:44:16;98911.84;;;18.48;91.59
18850;BME280;4989;48.772;9.154;2023-09-30T05:49:37;98920.59;;;18.02;94.97
18850;BME280;4989;48.772;9.154;2023-09-30T05:54:58;98927.56;;;17.72;99.57
18850;BME280;4989;48.772;9.154;2023-09-30T06:00:24;98936.03;;;18.00;97.71
18850;BME280;4989;48.772;9.154;2023-09-30T06:05:52;98936.03;;;19.52;87.62
18850;BME280;4989;48.772;9.154;2023-09-30T06:11:21;98940.84;;;19.11;86.13
18850;BME280;4989;48.772;9.154;2023-09-30T06:16:45;98957.53;;;18.14;93.73
18850;BME280;4989;48.772;9.154;2023-09-30T06:22:06;98960.81;;;19.25;91.25
18850;BME280;4989;48.772;9.154;2023-09-30T06:27:27;98968.69;;;20.27;85.10
18850;BME280;4989;48.772;9.154;2023-09-30T06:32:48;98966.94;;;20.57;82.23
18850;BME280;4989;48.772;9.154;2023-09-30T06:38:09;98971.75;;;21.14;78.67
18850;BME280;4989;48.772;9.154;2023-09-30T06:43:31;98972.69;;;21.11;77.98
18850;BME280;4989;48.772;9.154;2023-09-30T06:48:53;98982.53;;;21.45;75.97
18850;BME280;4989;48.772;9.154;2023-09-30T06:54:14;98988.06;;;21.45;76.80
18850;BME280;4989;48.772;9.154;2023-09-30T06:59:35;99007.28;;;21.88;74.34
18850;BME280;4989;48.772;9.154;2023-09-30T07:04:56;98995.34;;;20.40;75.10
18850;BME280;4989;48.772;9.154;2023-09-30T07:10:18;98985.53;;;19.56;87.48
18850;BME280;4989;48.772;9.154;2023-09-30T07:15:38;98984.63;;;20.84;78.76
18850;BME280;4989;48.772;9.154;2023-09-30T07:20:59;98981.34;;;21.37;76.46
18850;BME280;4989;48.772;9.154;2023-09-30T07:26:26;98995.69;;;21.50;75.92
18850;BME280;4989;48.772;9.154;2023-09-30T07:31:48;99017.88;;;21.41;74.86
18850;BME280;4989;48.772;9.154;2023-09-30T07:37:12;99025.84;;;21.48;74.78
18850;BME280;4989;48.772;9.154;2023-09-30T07:42:34;99003.16;;;21.59;72.94
18850;BME280;4989;48.772;9.154;2023-09-30T07:47:55;99009.88;;;21.67;73.79
18850;BME280;4989;48.772;9.154;2023-09-30T07:53:16;99018.00;;;21.71;73.31
18850;BME280;4989;48.772;9.154;2023-09-30T07:58:37;99036.03;;;21.42;71.08
18850;BME280;4989;48.772;9.154;2023-09-30T08:03:58;99031.72;;;19.33;80.98
18850;BME280;4989;48.772;9.154;2023-09-30T08:09:19;99032.66;;;20.07;80.14
18850;BME280;4989;48.772;9.154;2023-09-30T08:14:40;99023.72;;;20.58;75.25
18850;BME280;4989;48.772;9.154;2023-09-30T08:20:00;99017.44;;;20.49;75.73
18850;BME280;4989;48.772;9.154;2023-09-30T08:25:21;99024.59;;;20.74;74.02
18850;BME280;4989;48.772;9.154;2023-09-30T08:30:43;99011.75;;;19.70;79.43
18850;BME280;4989;48.772;9.154;2023-09-30T08:36:05;99019.38;;;19.56;80.22
18850;BME280;4989;48.772;9.154;2023-09-30T08:41:33;99028.31;;;22.33;70.75
18850;BME280;4989;48.772;9.154;2023-09-30T08:46:56;99007.66;;;23.29;63.26
18850;BME280;4989;48.772;9.154;2023-09-30T08:52:17;99009.44;;;23.12;62.00
18850;BME280;4989;48.772;9.154;2023-09-30T08:57:41;99018.00;;;24.31;57.89
18850;BME280;4989;48.772;9.154;2023-09-30T09:03:03;99000.13;;;22.50;69.17
18850;BME280;4989;48.772;9.154;2023-09-30T09:08:26;98991.69;;;22.74;62.82
18850;BME280;4989;48.772;9.154;2023-09-30T09:13:54;99006.75;;;21.75;66.25
18850;BME280;4989;48.772;9.154;2023-09-30T09:19:17;99029.91;;;21.29;67.91
18850;BME280;4989;48.772;9.154;2023-09-30T09:24:38;99023.22;;;21.45;71.36
18850;BME280;4989;48.772;9.154;2023-09-30T09:35:38;99021.53;;;22.94;67.26
18850;BME280;4989;48.772;9.154;2023-09-30T09:40:59;99003.34;;;23.07;66.60
18850;BME280;4989;48.772;9.154;2023-09-30T09:46:21;98997.50;;;23.41;66.35
18850;BME280;4989;48.772;9.154;2023-09-30T09:51:50;98985.75;;;24.39;60.93
18850;BME280;4989;48.772;9.154;2023-09-30T09:57:12;98996.41;;;23.94;59.87
18850;BME280;4989;48.772;9.154;2023-09-30T10:02:33;98996.56;;;23.85;62.63
18850;BME280;4989;48.772;9.154;2023-09-30T10:07:57;98990.16;;;23.58;61.57
18850;BME280;4989;48.772;9.154;2023-09-30T10:13:55;98999.44;;;23.35;64.17
18850;BME280;4989;48.772;9.154;2023-09-30T10:19:21;98980.53;;;22.53;66.64
18850;BME280;4989;48.772;9.154;2023-09-30T10:24:54;98973.88;;;23.10;65.60
18850;BME280;4989;48.772;9.154;2023-09-30T10:30:15;98977.41;;;24.39;59.74
18850;BME280;4989;48.772;9.154;2023-09-30T10:41:00;98977.56;;;23.63;63.48
18850;BME280;4989;48.772;9.154;2023-09-30T10:51:47;98962.16;;;23.41;64.46
18850;BME280;4989;48.772;9.154;2023-09-30T10:57:10;98964.34;;;23.52;64.11
18850;BME280;4989;48.772;9.154;2023-09-30T11:02:31;98951.53;;;24.01;62.23
18850;BME280;4989;48.772;9.154;2023-09-30T11:07:56;98957.38;;;24.03;61.39
18850;BME280;4989;48.772;9.154;2023-09-30T11:13:20;98949.19;;;23.94;55.91
18850;BME280;4989;48.772;9.154;2023-09-30T11:18:41;98936.88;;;23.34;60.12
18850;BME280;4989;48.772;9.154;2023-09-30T11:24:02;98935.69;;;24.07;58.90
18850;BME280;4989;48.772;9.154;2023-09-30T11:29:23;98921.06;;;27.30;51.54
18850;BME280;4989;48.772;9.154;2023-09-30T11:34:46;98929.66;;;25.64;55.66
18850;BME280;4989;48.772;9.154;2023-09-30T11:40:14;98934.41;;;24.66;56.50
18850;BME280;4989;48.772;9.154;2023-09-30T11:45:35;98930.13;;;22.84;54.20
18850;BME280;4989;48.772;9.154;2023-09-30T11:50:59;98923.47;;;24.25;54.42
18850;BME280;4989;48.772;9.154;2023-09-30T11:56:22;98918.72;;;24.63;54.26
18850;BME280;4989;48.772;9.154;2023-09-30T12:01:49;98919.88;;;24.45;51.14
18850;BME280;4989;48.772;9.154;2023-09-30T12:07:26;98939.94;;;24.03;57.77
18850;BME280;4989;48.772;9.154;2023-09-30T12:12:47;98938.16;;;23.99;57.47
18850;BME280;4989;48.772;9.154;2023-09-30T12:18:09;98931.22;;;23.89;59.03
18850;BME280;4989;48.772;9.154;2023-09-30T12:23:31;98928.72;;;23.91;58.92
18850;BME280;4989;48.772;9.154;2023-09-30T12:28:52;98927.19;;;24.16;54.95
18850;BME280;4989;48.772;9.154;2023-09-30T12:34:13;98920.31;;;25.72;54.01
18850;BME280;4989;48.772;9.154;2023-09-30T12:39:34;98917.75;;;25.69;52.62
18850;BME280;4989;48.772;9.154;2023-09-30T12:44:57;98898.00;;;25.61;47.88
18850;BME280;4989;48.772;9.154;2023-09-30T12:50:18;98912.06;;;25.35;52.50
18850;BME280;4989;48.772;9.154;2023-09-30T12:55:39;98914.22;;;25.08;53.90
18850;BME280;4989;48.772;9.154;2023-09-30T13:01:00;98908.84;;;25.53;53.02
18850;BME280;4989;48.772;9.154;2023-09-30T13:06:41;98908.88;;;25.05;54.32
18850;BME280;4989;48.772;9.154;2023-09-30T13:12:03;98906.72;;;24.83;56.89
18850;BME280;4989;48.772;9.154;2023-09-30T13:17:24;98893.88;;;24.48;55.55
18850;BME280;4989;48.772;9.154;2023-09-30T13:22:46;98885.25;;;24.83;49.56
18850;BME280;4989;48.772;9.154;2023-09-30T13:28:06;98875.72;;;25.01;47.09
18850;BME280;4989;48.772;9.154;2023-09-30T13:33:27;98872.00;;;24.35;54.97
18850;BME280;4989;48.772;9.154;2023-09-30T13:38:48;98873.06;;;24.06;57.58
18850;BME280;4989;48.772;9.154;2023-09-30T13:44:09;98882.53;;;23.94;58.22
18850;BME280;4989;48.772;9.154;2023-09-30T13:49:33;98889.25;;;23.82;57.90
18850;BME280;4989;48.772;9.154;2023-09-30T13:54:54;98892.66;;;23.71;56.12
18850;BME280;4989;48.772;9.154;2023-09-30T14:00:16;98888.94;;;23.80;57.81
18850;BME280;4989;48.772;9.154;2023-09-30T14:05:37;98881.88;;;23.79;58.95
18850;BME280;4989;48.772;9.154;2023-09-30T14:10:59;98871.47;;;23.73;59.52
18850;BME280;4989;48.772;9.154;2023-09-30T14:16:19;98868.81;;;24.16;53.57
18850;BME280;4989;48.772;9.154;2023-09-30T14:21:41;98867.38;;;23.95;55.78
18850;BME280;4989;48.772;9.154;2023-09-30T14:27:03;98869.34;;;23.89;57.17
18850;BME280;4989;48.772;9.154;2023-09-30T14:32:24;98865.88;;;23.94;56.06
18850;BME280;4989;48.772;9.154;2023-09-30T14:37:45;98867.28;;;23.84;57.80
18850;BME280;4989;48.772;9.154;2023-09-30T14:43:07;98850.63;;;23.84;58.28
18850;BME280;4989;48.772;9.154;2023-09-30T14:48:28;98853.66;;;23.86;52.88
18850;BME280;4989;48.772;9.154;2023-09-30T14:53:49;98859.66;;;23.79;55.79
18850;BME280;4989;48.772;9.154;2023-09-30T14:59:10;98852.94;;;23.65;57.60
18850;BME280;4989;48.772;9.154;2023-09-30T15:04:31;98857.72;;;23.64;58.64
18850;BME280;4989;48.772;9.154;2023-09-30T15:09:53;98858.31;;;23.48;58.48
18850;BME280;4989;48.772;9.154;2023-09-30T15:15:15;98862.78;;;23.40;58.83
18850;BME280;4989;48.772;9.154;2023-09-30T15:20:39;98866.50;;;23.57;56.79
18850;BME280;4989;48.772;9.154;2023-09-30T15:26:00;98859.78;;;23.43;57.00
18850;BME280;4989;48.772;9.154;2023-09-30T15:31:30;98859.72;;;23.38;58.79
18850;BME280;4989;48.772;9.154;2023-09-30T15:36:51;98859.31;;;23.24;54.53
18850;BME280;4989;48.772;9.154;2023-09-30T15:42:13;98858.28;;;23.22;55.18
18850;BME280;4989;48.772;9.154;2023-09-30T15:47:36;98856.75;;;23.00;58.69
18850;BME280;4989;48.772;9.154;2023-09-30T15:52:57;98858.69;;;23.15;58.73
18850;BME280;4989;48.772;9.154;2023-09-30T15:58:18;98861.53;;;23.20;59.05
18850;BME280;4989;48.772;9.154;2023-09-30T16:03:39;98860.00;;;23.19;59.24
18850;BME280;4989;48.772;9.154;2023-09-30T16:09:03;98857.09;;;23.08;59.30
18850;BME280;4989;48.772;9.154;2023-09-30T16:14:23;98866.66;;;23.07;59.06
18850;BME280;4989;48.772;9.154;2023-09-30T16:19:44;98857.22;;;22.99;59.93
18850;BME280;4989;48.772;9.154;2023-09-30T16:25:06;98856.09;;;22.91;59.74
18850;BME280;4989;48.772;9.154;2023-09-30T16:30:27;98862.34;;;22.85;59.60
18850;BME280;4989;48.772;9.154;2023-09-30T16:35:53;98867.59;;;22.83;59.59
18850;BME280;4989;48.772;9.154;2023-09-30T16:41:16;98868.59;;;22.66;61.08
18850;BME280;4989;48.772;9.154;2023-09-30T16:46:36;98875.84;;;22.63;60.21
18850;BME280;4989;48.772;9.154;2023-09-30T16:51:58;98871.16;;;22.34;61.36
18850;BME280;4989;48.772;9.154;2023-09-30T16:57:19;98875.91;;;22.48;60.97
18850;BME280;4989;48.772;9.154;2023-09-30T17:02:42;98871.28;;;22.60;61.75
18850;BME280;4989;48.772;9.154;2023-09-30T17:08:05;98879.34;;;22.58;60.39
18850;BME280;4989;48.772;9.154;2023-09-30T17:13:26;98881.84;;;22.41;61.13
18850;BME280;4989;48.772;9.154;2023-09-30T17:18:48;98889.69;;;22.43;61.87
18850;BME280;4989;48.772;9.154;2023-09-30T17:24:09;98881.47;;;22.48;61.16
18850;BME280;4989;48.772;9.154;2023-09-30T17:29:30;98881.09;;;22.26;59.35
18850;BME280;4989;48.772;9.154;2023-09-30T17:34:51;98897.25;;;22.27;63.61
18850;BME280;4989;48.772;9.154;2023-09-30T17:40:12;98887.69;;;22.28;60.08
18850;BME280;4989;48.772;9.154;2023-09-30T17:45:33;98902.66;;;22.07;58.53
18850;BME280;4989;48.772;9.154;2023-09-30T17:50:54;98888.75;;;21.47;59.94
18850;BME280;4989;48.772;9.154;2023-09-30T17:56:20;98888.53;;;20.46;60.96
18850;BME280;4989;48.772;9.154;2023-09-30T18:01:41;98887.94;;;19.72;64.45
18850;BME280;4989;48.772;9.154;2023-09-30T18:07:05;98894.31;;;20.05;64.54
18850;BME280;4989;48.772;9.154;2023-09-30T18:12:27;98887.53;;;20.67;63.77
18850;BME280;4989;48.772;9.154;2023-09-30T18:17:49;98889.13;;;19.98;65.50
18850;BME280;4989;48.772;9.154;2023-09-30T18:23:29;98896.25;;;20.75;72.66
18850;BME280;4989;48.772;9.154;2023-09-30T18:28:50;98909.03;;;20.96;67.25
18850;BME280;4989;48.772;9.154;2023-09-30T18:34:11;98915.50;;;20.93;67.60
18850;BME280;4989;48.772;9.154;2023-09-30T18:39:32;98919.97;;;21.15;67.83
18850;BME280;4989;48.772;9.154;2023-09-30T18:44:52;98919.72;;;20.37;63.87
18850;BME280;4989;48.772;9.154;2023-09-30T18:50:13;98926.84;;;19.46;68.63
18850;BME280;4989;48.772;9.154;2023-09-30T18:55:37;98918.44;;;19.77;67.66
18850;BME280;4989;48.772;9.154;2023-09-30T19:00:58;98913.28;;;19.11;70.55
18850;BME280;4989;48.772;9.154;2023-09-30T19:06:20;98915.81;;;19.83;69.71
18850;BME280;4989;48.772;9.154;2023-09-30T19:11:41;98923.41;;;19.14;70.91
18850;BME280;4989;48.772;9.154;2023-09-30T19:17:02;98922.28;;;19.80;71.02
18850;BME280;4989;48.772;9.154;2023-09-30T19:22:23;98922.88;;;19.65;70.14
18850;BME280;4989;48.772;9.154;2023-09-30T19:27:44;98924.19;;;19.33;71.98
18850;BME280;4989;48.772;9.154;2023-09-30T19:33:04;98927.28;;;19.35;70.58
18850;BME280;4989;48.772;9.154;2023-09-30T19:38:25;98931.25;;;18.75;70.11
18850;BME280;4989;48.772;9.154;2023-09-30T19:43:46;98931.00;;;18.61;73.91
18850;BME280;4989;48.772;9.154;2023-09-30T19:49:07;98935.38;;;19.30;75.93
18850;BME280;4989;48.772;9.154;2023-09-30T19:54:27;98947.06;;;19.52;68.79
18850;BME280;4989;48.772;9.154;2023-09-30T19:59:48;98951.31;;;18.76;71.29
18850;BME280;4989;48.772;9.154;2023-09-30T20:05:09;98946.75;;;18.82;74.09
18850;BME280;4989;48.772;9.154;2023-09-30T20:10:31;98952.72;;;19.49;75.29
18850;BME280;4989;48.772;9.154;2023-09-30T20:15:54;98953.06;;;19.97;69.07
18850;BME280;4989;48.772;9.154;2023-09-30T20:21:15;98955.06;;;19.68;71.26
18850;BME280;4989;48.772;9.154;2023-09-30T20:26:37;98953.94;;;19.48;73.84
18850;BME280;4989;48.772;9.154;2023-09-30T20:31:58;98949.53;;;20.05;73.80
18850;BME280;4989;48.772;9.154;2023-09-30T20:37:19;98940.03;;;20.06;74.83
18850;BME280;4989;48.772;9.154;2023-09-30T20:42:41;98951.06;;;19.79;74.85
18850;BME280;4989;48.772;9.154;2023-09-30T20:48:02;98943.72;;;19.85;73.33
18850;BME280;4989;48.772;9.154;2023-09-30T20:53:26;98937.28;;;19.79;73.04
18850;BME280;4989;48.772;9.154;2023-09-30T20:58:48;98926.88;;;19.64;71.52
18850;BME280;4989;48.772;9.154;2023-09-30T21:04:10;98928.34;;;19.29;71.32
18850;BME280;4989;48.772;9.154;2023-09-30T21:09:32;98921.53;;;19.02;72.46
18850;BME280;4989;48.772;9.154;2023-09-30T21:14:53;98925.59;;;19.38;78.13
18850;BME280;4989;48.772;9.154;2023-09-30T21:20:14;98939.25;;;19.87;69.78
18850;BME280;4989;48.772;9.154;2023-09-30T21:25:35;98946.44;;;19.48;71.11
18850;BME280;4989;48.772;9.154;2023-09-30T21:30:56;98956.25;;;19.58;74.52
18850;BME280;4989;48.772;9.154;2023-09-30T21:36:17;98964.41;;;18.72;69.37
18850;BME280;4989;48.772;9.154;2023-09-30T21:41:39;98970.34;;;17.73;74.54
18850;BME280;4989;48.772;9.154;2023-09-30T21:47:01;98959.56;;;17.18;77.48
18850;BME280;4989;48.772;9.154;2023-09-30T21:52:23;98962.13;;;17.13;79.92
18850;BME280;4989;48.772;9.154;2023-09-30T21:57:44;98958.59;;;18.39;84.09
18850;BME280;4989;48.772;9.154;2023-09-30T22:03:07;98952.72;;;18.81;74.64
18850;BME280;4989;48.772;9.154;2023-09-30T22:08:29;98970.66;;;18.85;71.99
18850;BME280;4989;48.772;9.154;2023-09-30T22:13:52;98970.97;;;17.90;78.30
18850;BME280;4989;48.772;9.154;2023-09-30T22:19:13;98968.75;;;17.98;79.60
18850;BME280;4989;48.772;9.154;2023-09-30T22:24:35;98983.00;;;18.27;77.86
18850;BME280;4989;48.772;9.154;2023-09-30T22:29:56;98980.44;;;18.86;74.16
18850;BME280;4989;48.772;9.154;2023-09-30T22:35:18;98982.06;;;18.74;76.70
18850;BME280;4989;48.772;9.154;2023-09-30T22:40:39;98974.63;;;18.62;73.93
18850;BME280;4989;48.772;9.154;2023-09-30T22:46:03;98979.53;;;18.14;71.97
18850;BME280;4989;48.772;9.154;2023-09-30T22:51:27;98981.69;;;17.15;78.12
18850;BME280;4989;48.772;9.154;2023-09-30T22:56:48;98984.41;;;17.75;80.57
18850;BME280;4989;48.772;9.154;2023-09-30T23:02:09;98992.91;;;18.47;80.25
18850;BME280;4989;48.772;9.154;2023-09-30T23:07:30;98986.09;;;18.83;78.27
18850;BME280;4989;48.772;9.154;2023-09-30T23:12:52;98988.56;;;18.37;72.18
18850;BME280;4989;48.772;9.154;2023-09-30T23:18:13;98979.88;;;18.16;76.90
18850;BME280;4989;48.772;9.154;2023-09-30T23:23:34;98983.75;;;17.84;76.02
18850;BME280;4989;48.772;9.154;2023-09-30T23:28:56;98978.53;;;17.64;78.74
18850;BME280;4989;48.772;9.154;2023-09-30T23:34:19;98979.41;;;17.61;77.59
18850;BME280;4989;48.772;9.154;2023-09-30T23:39:40;98975.97;;;17.22;79.10
18850;BME280;4989;48.772;9.154;2023-09-30T23:45:02;98977.63;;;16.94;87.23
18850;BME280;4989;48.772;9.154;2023-09-30T23:50:23;98983.53;;;17.78;81.31
18850;BME280;4989;48.772;9.154;2023-09-30T23:55:46;98976.50;;;17.77;85.38
